Pagrindinis puslapis
METAR-TAF:

METAR-TAF

Oro uostai :

Šiaulių oro uostas

Šiauliai, Lietuva

platuma: 55-53-38N, ilguma: 023-23-42E, Aukštis: 135 m

Dabartinis oras

Ataskaita buvo paskelbta 28 minutes, ne 05:20 UTC
Vėjas 8 kt iš Pietų/Pietryčių
Temperatūra 23°C
Drėgmė 69%
Slėgis 1011 hPa
Matomumas 10 km arba daugiau
nėra debesų žemiau 1500 m ir nėra kamuolinių lietaus debesų

METAR: EYSA 220520Z 15008KT CAVOK 23/17 Q1011 BLU NOSIG

Laikas: 08:48 (05:48 UTC)

Prognozė

Ataskaita buvo paskelbta 48 minutes, ne 05:00 UTC
Prognozė galioja nuo 22 metu 06 UTC su 22 metu 15 UTC
Vėjas 10 kt iš Pietryčių
Matomumas: 9000 m
Tapsmas
nuo 22 metu 08 UTC su 22 metu 09 UTC
Išsisklaidę debesys ne aukštis 4500 ft
Laikinai
nuo 22 metu 09 UTC su 22 metu 15 UTC
Išsisklaidę debesys ne aukštis 3000 ft, Liūtiniai kamuoliniai debesys.

TAF: EYSA 220500Z 2206/2215 14010KT 9000 NSC BECMG 2208/2209 SCT045 TEMPO 2209/2215 SCT030CB

Orai ataskaitas ir orų prognozės (METAR, TAF).

turimą stotys yra geltonos ir raudonos taškus žemėlapyje.

Perkelti pele per norėdami pamatyti stoties vardą.

Tada spustelėkite, norėdami matyti oro stebėjimo ir prognozės.

Norėdami pakeisti žemėlapį: spustelėkite ant žalios mygtukų su juodo kryžiaus žemyn,; žalią mygtuką su brūkšneliu, jei norite nutolinti; arba žalių rodyklių gretimoms žemėlapius.


METAR-TAF: